Time;durP1;ratioP1;P1;durP2;ratioP2;P2;SDS_P1;SDS_P2;PMS_P1;PMS_P2;Temp;Humidity;BMP_temperature;BMP_pressure;BME280_temperature;BME280_humidity;BME280_pressure;Samples;Min_cycle;Max_cycle;Signal;HPM_P1;HPM_P2
2022/04/18 00:00:27;;;;;;;;;;;;;;;;;;1041730;28;3607;-49
2022/04/18 00:01:10;;;;;;;;;;;;;;;;;;1041260;28;2360;-47
2022/04/18 00:01:40;;;;;;;;;;;;;;;;;;1041288;28;3124;-46
2022/04/18 00:02:10;;;;;;;;;;;;;;;;;;1040772;28;3074;-44
2022/04/18 00:02:41;;;;;;;;;;;;;;;;;;1041639;28;3016;-46
2022/04/18 00:03:11;;;;;;;;;;;;;;;;;;1041219;28;1792;-51
2022/04/18 00:03:41;;;;;;;;;;;;;;;;;;1039072;28;3041;-46
2022/04/18 00:04:11;;;;;;;;;;;;;;;;;;1035983;28;2946;-46
2022/04/18 00:04:42;;;;;;;;;;;;;;;;;;1037003;28;2646;-47
2022/04/18 00:05:12;;;;;;;;;;;;;;;;;;1038975;28;1582;-45
2022/04/18 00:05:42;;;;;;;;;;;;;;;;;;1037466;28;1595;-45
2022/04/18 00:06:12;;;;;;;;;;;;;;;;;;1038149;28;2559;-49
2022/04/18 00:06:43;;;;;;;;;;;;;;;;;;1036081;28;3005;-45
2022/04/18 00:07:13;;;;;;;;;;;;;;;;;;1036794;28;2218;-50
2022/04/18 00:07:43;;;;;;;;;;;;;;;;;;1036796;28;2058;-46
2022/04/18 00:08:14;;;;;;;;;;;;;;;;;;1036675;28;2589;-46
2022/04/18 00:08:44;;;;;;;;;;;;;;;;;;1040518;28;3139;-45
2022/04/18 00:09:14;;;;;;;;;;;;;;;;;;1036675;28;2428;-49
2022/04/18 00:09:45;;;;;;;;;;;;;;;;;;1037325;28;2947;-46
2022/04/18 00:10:15;;;;;;;;;;;;;;;;;;1036502;28;3250;-49
2022/04/18 00:10:45;;;;;;;;;;;;;;;;;;1036030;28;3342;-48
2022/04/18 00:11:16;;;;;;;;;;;;;;;;;;1039418;28;3011;-48
2022/04/18 00:11:46;;;;;;;;;;;;;;;;;;1041934;28;2997;-45
2022/04/18 00:12:16;;;;;;;;;;;;;;;;;;1040780;28;3082;-48
2022/04/18 00:12:46;;;;;;;;;;;;;;;;;;1040494;28;3226;-45
2022/04/18 00:13:17;;;;;;;;;;;;;;;;;;1040611;28;2904;-45
2022/04/18 00:13:47;;;;;;;;;;;;;;;;;;1040396;28;1854;-47
2022/04/18 00:14:17;;;;;;;;;;;;;;;;;;1041542;28;3284;-47
2022/04/18 00:14:47;;;;;;;;;;;;;;;;;;1041058;28;3012;-47
2022/04/18 00:15:18;;;;;;;;;;;;;;;;;;1041462;28;2088;-45
2022/04/18 00:15:49;;;;;;;;;;;;;;;;;;1040211;28;2597;-47
2022/04/18 00:16:19;;;;;;;;;;;;;;;;;;1041771;28;2981;-48
2022/04/18 00:16:49;;;;;;;;;;;;;;;;;;1040367;28;3103;-48
2022/04/18 00:17:20;;;;;;;;;;;;;;;;;;1039562;28;3122;-46
2022/04/18 00:17:50;;;;;;;;;;;;;;;;;;1041768;28;2184;-44
2022/04/18 00:18:20;;;;;;;;;;;;;;;;;;1040008;28;3404;-46
2022/04/18 00:18:51;;;;;;;;;;;;;;;;;;1040548;28;3098;-46
2022/04/18 00:19:21;;;;;;;;;;;;;;;;;;1040154;28;2934;-48
2022/04/18 00:19:52;;;;;;;;;;;;;;;;;;1041116;28;2851;-45
2022/04/18 00:20:22;;;;;;;;;;;;;;;;;;1041117;28;3081;-47
2022/04/18 00:20:52;;;;;;;;;;;;;;;;;;1035875;28;3035;-48
2022/04/18 00:21:23;;;;;;;;;;;;;;;;;;1036667;28;3057;-45
2022/04/18 00:21:53;;;;;;;;;;;;;;;;;;1036557;28;2997;-49
2022/04/18 00:22:24;;;;;;;;;;;;;;;;;;1036347;28;3512;-47
2022/04/18 00:22:54;;;;;;;;;;;;;;;;;;1040149;28;3046;-45
2022/04/18 00:23:24;;;;;;;;;;;;;;;;;;1040333;28;2611;-44
2022/04/18 00:23:55;;;;;;;;;;;;;;;;;;1040293;28;3173;-47
2022/04/18 00:24:25;;;;;;;;;;;;;;;;;;1037270;28;2840;-49
2022/04/18 00:24:55;;;;;;;;;;;;;;;;;;1035057;28;2935;-45
2022/04/18 00:25:25;;;;;;;;;;;;;;;;;;1035958;28;2399;-46
2022/04/18 00:25:56;;;;;;;;;;;;;;;;;;1036064;28;3096;-48
2022/04/18 00:26:26;;;;;;;;;;;;;;;;;;1035982;28;3164;-45
2022/04/18 00:26:56;;;;;;;;;;;;;;;;;;1034257;28;3413;-48
2022/04/18 00:27:26;;;;;;;;;;;;;;;;;;1027295;28;4183;-46
2022/04/18 00:27:57;;;;;;;;;;;;;;;;;;1032001;28;5200;-51
2022/04/18 00:28:27;;;;;;;;;;;;;;;;;;1035330;28;4051;-45
2022/04/18 00:28:57;;;;;;;;;;;;;;;;;;1037537;28;3235;-47
2022/04/18 00:29:28;;;;;;;;;;;;;;;;;;1039229;28;3110;-45
2022/04/18 00:29:58;;;;;;;;;;;;;;;;;;1040354;28;2872;-45
2022/04/18 00:30:28;;;;;;;;;;;;;;;;;;1036595;28;3248;-46
2022/04/18 00:30:58;;;;;;;;;;;;;;;;;;1036473;28;1828;-46
2022/04/18 00:31:29;;;;;;;;;;;;;;;;;;1037474;28;2055;-47
2022/04/18 00:32:19;;;;;;;;;;;;;;;;;;1036510;28;3167;-51
2022/04/18 00:32:56;;;;;;;;;;;;;;;;;;1041657;28;1542;-43
2022/04/18 00:33:26;;;;;;;;;;;;;;;;;;1040383;28;2897;-48
2022/04/18 00:33:57;;;;;;;;;;;;;;;;;;1040956;28;3433;-47
2022/04/18 00:34:27;;;;;;;;;;;;;;;;;;1041449;28;1775;-50
2022/04/18 00:34:58;;;;;;;;;;;;;;;;;;1041986;28;1711;-44
2022/04/18 00:35:28;;;;;;;;;;;;;;;;;;1041661;28;1976;-48
2022/04/18 00:35:58;;;;;;;;;;;;;;;;;;1040617;28;2965;-45
2022/04/18 00:36:28;;;;;;;;;;;;;;;;;;1042756;28;1949;-44
2022/04/18 00:36:58;;;;;;;;;;;;;;;;;;1041200;28;2081;-47
2022/04/18 00:37:29;;;;;;;;;;;;;;;;;;1041752;28;1977;-46
2022/04/18 00:37:59;;;;;;;;;;;;;;;;;;1041073;28;2209;-45
2022/04/18 00:38:29;;;;;;;;;;;;;;;;;;1034229;28;2990;-50
2022/04/18 00:38:59;;;;;;;;;;;;;;;;;;1037101;28;2362;-48
2022/04/18 00:39:30;;;;;;;;;;;;;;;;;;1036515;28;2801;-47
2022/04/18 00:40:00;;;;;;;;;;;;;;;;;;1038029;28;1612;-47
2022/04/18 00:40:30;;;;;;;;;;;;;;;;;;1041177;28;2039;-44
2022/04/18 00:41:00;;;;;;;;;;;;;;;;;;1041736;28;1391;-48
2022/04/18 00:41:31;;;;;;;;;;;;;;;;;;1039611;28;3051;-46
2022/04/18 00:42:01;;;;;;;;;;;;;;;;;;1041383;28;3323;-46
2022/04/18 00:42:31;;;;;;;;;;;;;;;;;;1041836;28;1374;-47
2022/04/18 00:43:05;;;;;;;;;;;;;;;;;;1041420;28;1722;-47
2022/04/18 00:43:39;;;;;;;;;;;;;;;;;;1040150;28;2769;-46
2022/04/18 00:44:09;;;;;;;;;;;;;;;;;;1040519;28;3008;-50
2022/04/18 00:44:40;;;;;;;;;;;;;;;;;;1040176;28;2657;-47
2022/04/18 00:45:10;;;;;;;;;;;;;;;;;;1039531;28;2334;-46
2022/04/18 00:45:41;;;;;;;;;;;;;;;;;;1040390;28;3017;-47
2022/04/18 00:46:12;;;;;;;;;;;;;;;;;;1040974;28;3068;-46
2022/04/18 00:46:42;;;;;;;;;;;;;;;;;;1041384;28;2451;-45
2022/04/18 00:47:13;;;;;;;;;;;;;;;;;;1041703;28;2335;-47
2022/04/18 00:47:43;;;;;;;;;;;;;;;;;;1040611;28;1842;-46
2022/04/18 00:48:15;;;;;;;;;;;;;;;;;;1039699;28;2667;-45
2022/04/18 00:48:46;;;;;;;;;;;;;;;;;;1040071;28;3246;-43
2022/04/18 00:49:16;;;;;;;;;;;;;;;;;;1040074;28;2464;-46
2022/04/18 00:49:46;;;;;;;;;;;;;;;;;;1042284;28;2699;-47
2022/04/18 00:50:17;;;;;;;;;;;;;;;;;;1037099;28;1644;-45
2022/04/18 00:50:47;;;;;;;;;;;;;;;;;;1036524;28;3154;-47
2022/04/18 00:51:20;;;;;;;;;;;;;;;;;;1036704;28;1731;-46
2022/04/18 00:51:50;;;;;;;;;;;;;;;;;;1037221;28;2453;-48
2022/04/18 00:52:20;;;;;;;;;;;;;;;;;;1041280;28;2338;-46
2022/04/18 00:52:51;;;;;;;;;;;;;;;;;;1040721;28;2544;-46
2022/04/18 00:53:22;;;;;;;;;;;;;;;;;;1040915;28;2119;-46
2022/04/18 00:53:53;;;;;;;;;;;;;;;;;;1040044;28;2872;-46
2022/04/18 00:54:24;;;;;;;;;;;;;;;;;;1040738;28;3448;-47
2022/04/18 00:54:54;;;;;;;;;;;;;;;;;;1041426;28;2664;-46
2022/04/18 00:55:26;;;;;;;;;;;;;;;;;;1036842;28;2128;-49
2022/04/18 00:55:56;;;;;;;;;;;;;;;;;;1035885;28;2910;-46
2022/04/18 00:56:27;;;;;;;;;;;;;;;;;;1036474;28;3021;-49
2022/04/18 00:56:57;;;;;;;;;;;;;;;;;;1037331;28;2718;-49
2022/04/18 00:57:28;;;;;;;;;;;;;;;;;;1040249;28;2604;-44
2022/04/18 00:58:00;;;;;;;;;;;;;;;;;;1038345;28;2377;-48
2022/04/18 00:58:30;;;;;;;;;;;;;;;;;;1036892;28;2828;-45
2022/04/18 00:59:00;;;;;;;;;;;;;;;;;;1037259;28;2591;-46
2022/04/18 00:59:31;;;;;;;;;;;;;;;;;;1037643;28;2379;-50
2022/04/18 01:00:02;;;;;;;;;;;;;;;;;;1042231;28;2848;-50
2022/04/18 01:00:32;;;;;;;;;;;;;;;;;;1037104;28;2874;-45
2022/04/18 01:01:03;;;;;;;;;;;;;;;;;;1036398;28;3033;-47
2022/04/18 01:01:33;;;;;;;;;;;;;;;;;;1036893;28;2745;-47
2022/04/18 01:02:04;;;;;;;;;;;;;;;;;;1038845;28;1604;-47
2022/04/18 01:02:34;;;;;;;;;;;;;;;;;;1039921;28;2565;-45
2022/04/18 01:03:05;;;;;;;;;;;;;;;;;;1041032;28;2404;-45
2022/04/18 01:03:35;;;;;;;;;;;;;;;;;;1038122;28;2682;-47
2022/04/18 01:04:06;;;;;;;;;;;;;;;;;;1041055;28;2058;-45
2022/04/18 01:04:36;;;;;;;;;;;;;;;;;;1038965;28;2619;-45
2022/04/18 01:05:07;;;;;;;;;;;;;;;;;;1041695;28;2650;-46
2022/04/18 01:05:37;;;;;;;;;;;;;;;;;;1041302;28;2264;-46
2022/04/18 01:06:07;;;;;;;;;;;;;;;;;;1040960;28;2654;-44
2022/04/18 01:06:38;;;;;;;;;;;;;;;;;;1041195;28;2175;-47
2022/04/18 01:07:08;;;;;;;;;;;;;;;;;;1040866;28;2311;-48
2022/04/18 01:07:39;;;;;;;;;;;;;;;;;;1037372;28;1914;-45
2022/04/18 01:08:09;;;;;;;;;;;;;;;;;;1036584;28;1799;-46
2022/04/18 01:08:41;;;;;;;;;;;;;;;;;;1036778;28;2344;-45
2022/04/18 01:09:11;;;;;;;;;;;;;;;;;;1036647;28;1729;-49
2022/04/18 01:09:41;;;;;;;;;;;;;;;;;;1034107;28;2691;-47
2022/04/18 01:10:12;;;;;;;;;;;;;;;;;;1036427;28;1596;-46
2022/04/18 01:10:43;;;;;;;;;;;;;;;;;;1036282;28;2211;-47
2022/04/18 01:11:13;;;;;;;;;;;;;;;;;;1037109;28;1961;-46
2022/04/18 01:11:44;;;;;;;;;;;;;;;;;;1040420;28;2723;-45
2022/04/18 01:12:14;;;;;;;;;;;;;;;;;;1041483;28;2729;-46
2022/04/18 01:12:44;;;;;;;;;;;;;;;;;;1040483;28;2331;-46
2022/04/18 01:13:14;;;;;;;;;;;;;;;;;;1037023;28;2003;-46
2022/04/18 01:13:46;;;;;;;;;;;;;;;;;;1033956;28;2916;-48
2022/04/18 01:14:16;;;;;;;;;;;;;;;;;;1037392;28;2899;-46
2022/04/18 01:14:47;;;;;;;;;;;;;;;;;;1036974;28;2107;-46
2022/04/18 01:15:18;;;;;;;;;;;;;;;;;;1040709;28;2269;-47
2022/04/18 01:15:54;;;;;;;;;;;;;;;;;;1033615;28;2789;-44
2022/04/18 01:16:25;;;;;;;;;;;;;;;;;;1032769;28;2559;-45
2022/04/18 01:16:55;;;;;;;;;;;;;;;;;;1033997;28;2588;-46
2022/04/18 01:17:26;;;;;;;;;;;;;;;;;;1034465;28;1493;-48
2022/04/18 01:17:56;;;;;;;;;;;;;;;;;;1040862;28;2463;-44
2022/04/18 01:18:26;;;;;;;;;;;;;;;;;;1039688;28;2775;-51
2022/04/18 01:18:57;;;;;;;;;;;;;;;;;;1040487;28;2600;-46
2022/04/18 01:19:27;;;;;;;;;;;;;;;;;;1039878;28;2999;-45
2022/04/18 01:19:58;;;;;;;;;;;;;;;;;;1042097;28;2640;-48
2022/04/18 01:20:34;;;;;;;;;;;;;;;;;;1041259;28;2257;-46
2022/04/18 01:21:08;;;;;;;;;;;;;;;;;;1041647;28;2627;-45
2022/04/18 01:21:38;;;;;;;;;;;;;;;;;;1039936;28;2393;-47
2022/04/18 01:22:12;;;;;;;;;;;;;;;;;;1040410;28;2344;-47
2022/04/18 01:22:44;;;;;;;;;;;;;;;;;;1040699;28;1902;-46
2022/04/18 01:23:14;;;;;;;;;;;;;;;;;;1040631;28;1915;-47
2022/04/18 01:23:46;;;;;;;;;;;;;;;;;;1040453;28;2599;-45
2022/04/18 01:29:11;;;;;;;;;;;;;;;;;;1042523;28;1661;-46
2022/04/18 01:29:41;;;;;;;;;;;;;;;;;;1040608;28;2079;-47
2022/04/18 01:30:11;;;;;;;;;;;;;;;;;;1040318;28;2997;-48
2022/04/18 01:30:42;;;;;;;;;;;;;;;;;;1038301;28;2475;-45
2022/04/18 01:31:12;;;;;;;;;;;;;;;;;;1037632;28;1628;-47
2022/04/18 01:31:42;;;;;;;;;;;;;;;;;;1037214;28;2551;-51
2022/04/18 01:32:33;;;;;;;;;;;;;;;;;;1037263;28;2810;-44
2022/04/18 01:33:10;;;;;;;;;;;;;;;;;;1040372;28;2746;-48
2022/04/18 01:33:41;;;;;;;;;;;;;;;;;;1036673;28;2734;-46
2022/04/18 01:34:11;;;;;;;;;;;;;;;;;;1039004;28;1944;-46
2022/04/18 01:34:41;;;;;;;;;;;;;;;;;;1036244;28;2888;-47
2022/04/18 01:35:11;;;;;;;;;;;;;;;;;;1037969;28;1379;-48
2022/04/18 01:35:42;;;;;;;;;;;;;;;;;;1040467;28;1686;-46
2022/04/18 01:36:12;;;;;;;;;;;;;;;;;;1040454;28;2460;-47
2022/04/18 01:36:42;;;;;;;;;;;;;;;;;;1040153;28;3039;-45
2022/04/18 01:37:12;;;;;;;;;;;;;;;;;;1040727;28;2367;-49
2022/04/18 01:37:42;;;;;;;;;;;;;;;;;;1041260;28;1575;-43
2022/04/18 01:38:13;;;;;;;;;;;;;;;;;;1037172;28;2582;-48
2022/04/18 01:38:43;;;;;;;;;;;;;;;;;;1036579;28;2769;-44
2022/04/18 01:39:14;;;;;;;;;;;;;;;;;;1036857;28;1713;-44
2022/04/18 01:39:44;;;;;;;;;;;;;;;;;;1036522;28;1989;-48
2022/04/18 01:40:14;;;;;;;;;;;;;;;;;;1038751;28;2723;-49
2022/04/18 01:40:44;;;;;;;;;;;;;;;;;;1041214;28;2314;-47
2022/04/18 01:41:15;;;;;;;;;;;;;;;;;;1041464;28;1768;-46
2022/04/18 01:41:46;;;;;;;;;;;;;;;;;;1039687;28;2717;-47
2022/04/18 01:42:16;;;;;;;;;;;;;;;;;;1041341;28;1689;-47
2022/04/18 01:42:47;;;;;;;;;;;;;;;;;;1040519;28;2390;-46
2022/04/18 01:43:17;;;;;;;;;;;;;;;;;;1041773;28;1936;-46
2022/04/18 01:43:47;;;;;;;;;;;;;;;;;;1040507;28;2891;-47
2022/04/18 01:44:18;;;;;;;;;;;;;;;;;;1040774;28;2664;-48
2022/04/18 01:44:48;;;;;;;;;;;;;;;;;;1040145;28;2204;-44
2022/04/18 01:45:18;;;;;;;;;;;;;;;;;;1041462;28;1754;-45
2022/04/18 01:45:48;;;;;;;;;;;;;;;;;;1040942;28;2943;-47
2022/04/18 01:46:19;;;;;;;;;;;;;;;;;;1041665;28;2872;-50
2022/04/18 01:46:50;;;;;;;;;;;;;;;;;;1040954;28;2347;-45
2022/04/18 01:47:20;;;;;;;;;;;;;;;;;;1040995;28;2084;-45
2022/04/18 01:47:50;;;;;;;;;;;;;;;;;;1040145;28;2576;-48
2022/04/18 01:48:21;;;;;;;;;;;;;;;;;;1041333;28;2828;-49
2022/04/18 01:48:51;;;;;;;;;;;;;;;;;;1040957;28;2347;-46
2022/04/18 01:49:22;;;;;;;;;;;;;;;;;;1041376;28;1661;-49
2022/04/18 01:49:53;;;;;;;;;;;;;;;;;;1041072;28;2733;-47
2022/04/18 01:50:23;;;;;;;;;;;;;;;;;;1041707;28;2978;-47
2022/04/18 01:50:54;;;;;;;;;;;;;;;;;;1040626;28;2404;-48
2022/04/18 01:51:24;;;;;;;;;;;;;;;;;;1041258;28;2736;-48
2022/04/18 01:51:54;;;;;;;;;;;;;;;;;;1039565;28;2810;-45
2022/04/18 01:52:24;;;;;;;;;;;;;;;;;;1040553;28;2783;-45
2022/04/18 01:52:55;;;;;;;;;;;;;;;;;;1041278;28;2327;-46
2022/04/18 01:53:26;;;;;;;;;;;;;;;;;;1041314;28;2016;-48
2022/04/18 01:53:56;;;;;;;;;;;;;;;;;;1040977;28;2127;-46
2022/04/18 01:54:26;;;;;;;;;;;;;;;;;;1041842;28;2540;-46
2022/04/18 01:54:57;;;;;;;;;;;;;;;;;;1041914;28;2201;-48
2022/04/18 01:55:27;;;;;;;;;;;;;;;;;;1040581;28;2733;-46
2022/04/18 01:55:57;;;;;;;;;;;;;;;;;;1041734;28;3191;-47
2022/04/18 01:56:27;;;;;;;;;;;;;;;;;;1042140;28;1885;-47
2022/04/18 01:56:58;;;;;;;;;;;;;;;;;;1043359;28;1682;-46
2022/04/18 01:57:28;;;;;;;;;;;;;;;;;;1041453;28;2181;-46
2022/04/18 01:57:58;;;;;;;;;;;;;;;;;;1042441;28;2510;-45
2022/04/18 01:58:28;;;;;;;;;;;;;;;;;;1041139;28;2282;-47
2022/04/18 01:58:59;;;;;;;;;;;;;;;;;;1042032;28;2366;-46
2022/04/18 01:59:29;;;;;;;;;;;;;;;;;;1040797;28;2937;-47
2022/04/18 02:00:00;;;;;;;;;;;;;;;;;;1042782;28;2709;-45
2022/04/18 02:00:30;;;;;;;;;;;;;;;;;;1041273;28;2785;-48
2022/04/18 02:01:00;;;;;;;;;;;;;;;;;;1042916;28;2558;-47
2022/04/18 02:01:31;;;;;;;;;;;;;;;;;;1039895;28;2685;-47
2022/04/18 02:02:01;;;;;;;;;;;;;;;;;;1041285;28;2621;-46
2022/04/18 02:02:31;;;;;;;;;;;;;;;;;;1042551;28;2229;-49
2022/04/18 02:03:02;;;;;;;;;;;;;;;;;;1040506;28;2764;-46
2022/04/18 02:03:32;;;;;;;;;;;;;;;;;;1042013;28;2822;-48
2022/04/18 02:04:03;;;;;;;;;;;;;;;;;;1040784;28;2661;-46
2022/04/18 02:04:33;;;;;;;;;;;;;;;;;;1041255;28;2662;-48
2022/04/18 02:05:04;;;;;;;;;;;;;;;;;;1041733;28;2585;-48
2022/04/18 02:05:34;;;;;;;;;;;;;;;;;;1041515;28;2457;-47
2022/04/18 02:06:05;;;;;;;;;;;;;;;;;;1043025;28;1484;-52
2022/04/18 02:06:35;;;;;;;;;;;;;;;;;;1041174;28;2076;-47
2022/04/18 02:07:05;;;;;;;;;;;;;;;;;;1041848;28;2847;-46
2022/04/18 02:07:36;;;;;;;;;;;;;;;;;;1040517;28;2932;-50
2022/04/18 02:08:06;;;;;;;;;;;;;;;;;;1042978;28;1123;-48
2022/04/18 02:08:36;;;;;;;;;;;;;;;;;;1041533;28;2720;-47
2022/04/18 02:09:07;;;;;;;;;;;;;;;;;;1042317;28;2314;-47
2022/04/18 02:09:40;;;;;;;;;;;;;;;;;;1040539;28;2719;-47
2022/04/18 02:10:10;;;;;;;;;;;;;;;;;;1042689;28;2564;-45
2022/04/18 02:10:41;;;;;;;;;;;;;;;;;;1040292;28;3046;-47
2022/04/18 02:11:11;;;;;;;;;;;;;;;;;;1040654;28;2822;-47
2022/04/18 02:11:41;;;;;;;;;;;;;;;;;;1041855;28;2824;-45
2022/04/18 02:12:12;;;;;;;;;;;;;;;;;;1041153;28;3102;-44
2022/04/18 02:12:42;;;;;;;;;;;;;;;;;;1037806;28;2546;-47
2022/04/18 02:13:13;;;;;;;;;;;;;;;;;;1037303;28;1823;-47
2022/04/18 02:13:43;;;;;;;;;;;;;;;;;;1036973;28;2907;-46
2022/04/18 02:14:14;;;;;;;;;;;;;;;;;;1037585;28;1732;-46
2022/04/18 02:14:45;;;;;;;;;;;;;;;;;;1041369;28;2916;-46
2022/04/18 02:15:15;;;;;;;;;;;;;;;;;;1041743;28;1977;-47
2022/04/18 02:15:45;;;;;;;;;;;;;;;;;;1041744;28;2553;-46
2022/04/18 02:16:15;;;;;;;;;;;;;;;;;;1042208;28;2720;-45
2022/04/18 02:16:46;;;;;;;;;;;;;;;;;;1039177;28;2749;-47
2022/04/18 02:17:16;;;;;;;;;;;;;;;;;;1041187;28;2951;-47
2022/04/18 02:17:46;;;;;;;;;;;;;;;;;;1040592;28;2241;-50
2022/04/18 02:18:17;;;;;;;;;;;;;;;;;;1042315;28;2482;-45
2022/04/18 02:18:47;;;;;;;;;;;;;;;;;;1041074;28;2126;-45
2022/04/18 02:19:17;;;;;;;;;;;;;;;;;;1038608;28;2219;-45
2022/04/18 02:19:48;;;;;;;;;;;;;;;;;;1041711;28;2165;-47
2022/04/18 02:20:18;;;;;;;;;;;;;;;;;;1041125;28;2785;-45
2022/04/18 02:20:48;;;;;;;;;;;;;;;;;;1041149;28;2429;-43
2022/04/18 02:21:19;;;;;;;;;;;;;;;;;;1041406;28;2535;-44
2022/04/18 02:21:49;;;;;;;;;;;;;;;;;;1041855;28;2271;-51
2022/04/18 02:22:23;;;;;;;;;;;;;;;;;;1040294;28;2846;-49
2022/04/18 02:22:54;;;;;;;;;;;;;;;;;;1042141;28;3297;-46
2022/04/18 02:23:24;;;;;;;;;;;;;;;;;;1042015;28;2613;-46
2022/04/18 02:23:55;;;;;;;;;;;;;;;;;;1041028;28;2428;-45
2022/04/18 02:24:25;;;;;;;;;;;;;;;;;;1041901;28;1882;-45
2022/04/18 02:24:57;;;;;;;;;;;;;;;;;;1041608;28;2632;-47
2022/04/18 02:25:27;;;;;;;;;;;;;;;;;;1041964;28;2399;-47
2022/04/18 02:25:57;;;;;;;;;;;;;;;;;;1036903;28;2763;-45
2022/04/18 02:26:27;;;;;;;;;;;;;;;;;;1036471;28;3048;-46
2022/04/18 02:26:58;;;;;;;;;;;;;;;;;;1038249;28;1677;-46
2022/04/18 02:27:28;;;;;;;;;;;;;;;;;;1036914;28;1940;-47
2022/04/18 02:27:59;;;;;;;;;;;;;;;;;;1042164;28;2815;-45
2022/04/18 02:28:30;;;;;;;;;;;;;;;;;;1042180;28;3058;-45
2022/04/18 02:29:01;;;;;;;;;;;;;;;;;;1043409;28;2639;-47
2022/04/18 02:29:31;;;;;;;;;;;;;;;;;;1040166;28;2756;-48
2022/04/18 02:30:02;;;;;;;;;;;;;;;;;;1042464;28;1718;-49
2022/04/18 02:30:32;;;;;;;;;;;;;;;;;;1041510;28;2756;-46
2022/04/18 02:31:03;;;;;;;;;;;;;;;;;;1043219;28;2417;-45
2022/04/18 02:32:47;;;;;;;;;;;;;;;;;;1041097;28;1884;-50
2022/04/18 02:32:50;;;;;;;;;;;;;;;;;;1040781;28;2098;-46
2022/04/18 02:33:26;;;;;;;;;;;;;;;;;;1041484;28;2726;-47
2022/04/18 02:34:04;;;;;;;;;;;;;;;;;;1041156;28;2148;-45
2022/04/18 02:34:34;;;;;;;;;;;;;;;;;;1042055;28;2280;-48
2022/04/18 02:35:05;;;;;;;;;;;;;;;;;;1040683;28;2785;-45
2022/04/18 02:35:35;;;;;;;;;;;;;;;;;;1039725;28;2763;-48
2022/04/18 02:36:12;;;;;;;;;;;;;;;;;;1042399;28;1973;-47
2022/04/18 02:36:42;;;;;;;;;;;;;;;;;;1037180;28;2777;-46
2022/04/18 02:37:13;;;;;;;;;;;;;;;;;;1038054;28;1789;-49
2022/04/18 02:37:43;;;;;;;;;;;;;;;;;;1036576;28;2363;-48
2022/04/18 02:38:14;;;;;;;;;;;;;;;;;;1037763;28;2866;-46
2022/04/18 02:38:44;;;;;;;;;;;;;;;;;;1041789;28;2359;-45
2022/04/18 02:39:20;;;;;;;;;;;;;;;;;;1036718;28;2717;-44
2022/04/18 02:39:51;;;;;;;;;;;;;;;;;;1037505;28;2464;-48
2022/04/18 02:40:22;;;;;;;;;;;;;;;;;;1037824;28;3394;-44
2022/04/18 02:40:52;;;;;;;;;;;;;;;;;;1037501;28;2620;-46
2022/04/18 02:41:22;;;;;;;;;;;;;;;;;;1042584;28;2847;-47
2022/04/18 02:41:52;;;;;;;;;;;;;;;;;;1041933;28;2698;-47
2022/04/18 02:42:23;;;;;;;;;;;;;;;;;;1042066;28;1766;-49
2022/04/18 02:42:53;;;;;;;;;;;;;;;;;;1041894;28;2015;-45
2022/04/18 02:43:23;;;;;;;;;;;;;;;;;;1040592;28;2165;-48
2022/04/18 02:43:53;;;;;;;;;;;;;;;;;;1042843;28;2427;-46
2022/04/18 02:44:24;;;;;;;;;;;;;;;;;;1041301;28;2570;-47
2022/04/18 02:44:54;;;;;;;;;;;;;;;;;;1042497;28;2441;-45
2022/04/18 02:45:27;;;;;;;;;;;;;;;;;;1041025;28;2521;-48
2022/04/18 02:45:57;;;;;;;;;;;;;;;;;;1038794;28;1295;-44
2022/04/18 02:46:27;;;;;;;;;;;;;;;;;;1036934;28;2843;-48
2022/04/18 02:46:58;;;;;;;;;;;;;;;;;;1037787;28;1862;-45
2022/04/18 02:47:28;;;;;;;;;;;;;;;;;;1037617;28;2980;-45
2022/04/18 02:47:58;;;;;;;;;;;;;;;;;;1040817;28;1946;-47
2022/04/18 02:48:29;;;;;;;;;;;;;;;;;;1037465;28;2334;-44
2022/04/18 02:49:00;;;;;;;;;;;;;;;;;;1036629;28;2384;-46
2022/04/18 02:49:31;;;;;;;;;;;;;;;;;;1036730;28;3045;-47
2022/04/18 02:50:01;;;;;;;;;;;;;;;;;;1034298;28;2403;-47
2022/04/18 02:50:31;;;;;;;;;;;;;;;;;;1036766;28;2451;-46
2022/04/18 02:51:02;;;;;;;;;;;;;;;;;;1037165;28;2338;-47
2022/04/18 02:51:32;;;;;;;;;;;;;;;;;;1037639;28;2753;-47
2022/04/18 02:52:03;;;;;;;;;;;;;;;;;;1041751;28;2494;-45
2022/04/18 02:52:33;;;;;;;;;;;;;;;;;;1040548;28;2795;-47
2022/04/18 02:53:05;;;;;;;;;;;;;;;;;;1041884;28;2877;-48
2022/04/18 02:53:35;;;;;;;;;;;;;;;;;;1040560;28;2200;-48
2022/04/18 02:54:05;;;;;;;;;;;;;;;;;;1043005;28;1732;-44
2022/04/18 02:54:36;;;;;;;;;;;;;;;;;;1040884;28;2213;-45
2022/04/18 02:55:06;;;;;;;;;;;;;;;;;;1042381;28;1701;-46
2022/04/18 02:55:36;;;;;;;;;;;;;;;;;;1041608;28;1749;-44
2022/04/18 02:56:07;;;;;;;;;;;;;;;;;;1041864;28;2945;-46
2022/04/18 02:56:37;;;;;;;;;;;;;;;;;;1040861;28;2760;-50
2022/04/18 02:57:07;;;;;;;;;;;;;;;;;;1041374;28;2994;-46
2022/04/18 02:57:37;;;;;;;;;;;;;;;;;;1041231;28;3044;-43
2022/04/18 02:58:08;;;;;;;;;;;;;;;;;;1042199;28;1732;-46
2022/04/18 02:58:38;;;;;;;;;;;;;;;;;;1041718;28;2391;-44
2022/04/18 02:59:08;;;;;;;;;;;;;;;;;;1041871;28;1701;-43
2022/04/18 02:59:39;;;;;;;;;;;;;;;;;;1041399;28;2484;-46
2022/04/18 03:00:10;;;;;;;;;;;;;;;;;;1041212;28;2733;-46
2022/04/18 03:00:40;;;;;;;;;;;;;;;;;;1042317;28;2200;-44
2022/04/18 03:01:11;;;;;;;;;;;;;;;;;;1041510;28;1585;-46
2022/04/18 03:01:41;;;;;;;;;;;;;;;;;;1041374;28;2324;-46
2022/04/18 03:02:11;;;;;;;;;;;;;;;;;;1042932;28;1655;-44
2022/04/18 03:02:42;;;;;;;;;;;;;;;;;;1040671;28;2295;-48
2022/04/18 03:03:12;;;;;;;;;;;;;;;;;;1041532;28;2990;-47
2022/04/18 03:03:42;;;;;;;;;;;;;;;;;;1040851;28;2846;-47
2022/04/18 03:04:13;;;;;;;;;;;;;;;;;;1041985;28;2712;-45
2022/04/18 03:04:43;;;;;;;;;;;;;;;;;;1036242;28;2238;-50
2022/04/18 03:05:14;;;;;;;;;;;;;;;;;;1034073;28;1564;-49
2022/04/18 03:05:44;;;;;;;;;;;;;;;;;;1031341;28;3630;-45
2022/04/18 03:06:14;;;;;;;;;;;;;;;;;;1032973;28;2959;-44
2022/04/18 03:06:44;;;;;;;;;;;;;;;;;;1037147;28;2320;-45
2022/04/18 03:07:15;;;;;;;;;;;;;;;;;;1039814;28;2564;-44
2022/04/18 03:07:45;;;;;;;;;;;;;;;;;;1042330;28;2558;-44
2022/04/18 03:08:15;;;;;;;;;;;;;;;;;;1041189;28;2768;-44
2022/04/18 03:08:46;;;;;;;;;;;;;;;;;;1041349;28;2910;-46
2022/04/18 03:09:16;;;;;;;;;;;;;;;;;;1039295;28;2911;-43
2022/04/18 03:09:46;;;;;;;;;;;;;;;;;;1040713;28;2554;-45
2022/04/18 03:11:02;;;;;;;;;;;;;;;;;;1042349;28;2648;-46
2022/04/18 03:11:07;;;;;;;;;;;;;;;;;;1040982;28;2320;-45
2022/04/18 03:11:37;;;;;;;;;;;;;;;;;;1040898;28;2181;-47
2022/04/18 03:12:08;;;;;;;;;;;;;;;;;;1042281;28;2660;-44
2022/04/18 03:12:38;;;;;;;;;;;;;;;;;;1036901;28;2395;-44
2022/04/18 03:13:08;;;;;;;;;;;;;;;;;;1037185;28;2835;-45
2022/04/18 03:13:44;;;;;;;;;;;;;;;;;;1036498;28;2818;-44
2022/04/18 03:14:14;;;;;;;;;;;;;;;;;;1038199;28;1892;-44
2022/04/18 03:14:44;;;;;;;;;;;;;;;;;;1041018;28;2877;-47
2022/04/18 03:15:14;;;;;;;;;;;;;;;;;;1040383;28;2573;-44
2022/04/18 03:15:45;;;;;;;;;;;;;;;;;;1042299;28;2506;-43
2022/04/18 03:16:18;;;;;;;;;;;;;;;;;;1041819;28;1487;-43
2022/04/18 03:16:49;;;;;;;;;;;;;;;;;;1041237;28;2459;-42
2022/04/18 03:17:19;;;;;;;;;;;;;;;;;;1042033;28;1985;-42
2022/04/18 03:17:50;;;;;;;;;;;;;;;;;;1041580;28;2064;-46
2022/04/18 03:18:20;;;;;;;;;;;;;;;;;;1038109;28;2998;-44
2022/04/18 03:18:50;;;;;;;;;;;;;;;;;;1036512;28;2969;-43
2022/04/18 03:19:21;;;;;;;;;;;;;;;;;;1037829;28;2859;-45
2022/04/18 03:19:52;;;;;;;;;;;;;;;;;;1036932;28;2898;-43
2022/04/18 03:20:23;;;;;;;;;;;;;;;;;;1041903;28;3818;-49
2022/04/18 03:20:53;;;;;;;;;;;;;;;;;;1041067;28;2497;-44
2022/04/18 03:21:23;;;;;;;;;;;;;;;;;;1041014;28;1878;-43
2022/04/18 03:21:53;;;;;;;;;;;;;;;;;;1041335;28;2778;-44
2022/04/18 03:22:24;;;;;;;;;;;;;;;;;;1041962;28;2071;-44
2022/04/18 03:22:54;;;;;;;;;;;;;;;;;;1040116;28;2787;-44
2022/04/18 03:23:24;;;;;;;;;;;;;;;;;;1040706;28;2597;-46
2022/04/18 03:23:55;;;;;;;;;;;;;;;;;;1042021;28;2639;-46
2022/04/18 03:24:25;;;;;;;;;;;;;;;;;;1037081;28;2465;-46
2022/04/18 03:24:55;;;;;;;;;;;;;;;;;;1037120;28;2878;-44
2022/04/18 03:25:27;;;;;;;;;;;;;;;;;;1035907;28;2088;-48
2022/04/18 03:25:57;;;;;;;;;;;;;;;;;;1036804;28;2725;-45
2022/04/18 03:26:27;;;;;;;;;;;;;;;;;;1036731;28;2123;-49
2022/04/18 03:26:57;;;;;;;;;;;;;;;;;;1038285;28;2701;-43
2022/04/18 03:27:28;;;;;;;;;;;;;;;;;;1034745;28;2859;-44
2022/04/18 03:27:58;;;;;;;;;;;;;;;;;;1034932;28;2836;-46
2022/04/18 03:28:28;;;;;;;;;;;;;;;;;;1041797;28;2732;-43
2022/04/18 03:28:58;;;;;;;;;;;;;;;;;;1040928;28;2290;-46
2022/04/18 03:29:29;;;;;;;;;;;;;;;;;;1041518;28;2507;-45
2022/04/18 03:29:59;;;;;;;;;;;;;;;;;;1040188;28;2464;-47
2022/04/18 03:30:29;;;;;;;;;;;;;;;;;;1040877;28;2585;-46
2022/04/18 03:31:00;;;;;;;;;;;;;;;;;;1041189;28;2154;-43
2022/04/18 03:31:30;;;;;;;;;;;;;;;;;;1041529;28;2195;-45
2022/04/18 03:32:00;;;;;;;;;;;;;;;;;;1041366;28;1922;-47
2022/04/18 03:32:44;;;;;;;;;;;;;;;;;;1040248;28;2744;-47
2022/04/18 03:33:21;;;;;;;;;;;;;;;;;;1040509;28;2967;-44
2022/04/18 03:33:51;;;;;;;;;;;;;;;;;;1040108;28;2552;-44
2022/04/18 03:34:22;;;;;;;;;;;;;;;;;;1036503;28;1950;-44
2022/04/18 03:34:52;;;;;;;;;;;;;;;;;;1036083;28;2853;-46
2022/04/18 03:35:22;;;;;;;;;;;;;;;;;;1035840;28;2673;-42
2022/04/18 03:40:08;;;;;;;;;;;;;;;;;;1041090;28;2301;-41
2022/04/18 03:40:38;;;;;;;;;;;;;;;;;;1041447;28;2035;-45
2022/04/18 03:41:08;;;;;;;;;;;;;;;;;;1038708;28;2879;-44
2022/04/18 03:41:38;;;;;;;;;;;;;;;;;;1037905;28;2719;-42
2022/04/18 03:42:09;;;;;;;;;;;;;;;;;;1042710;28;1647;-44
2022/04/18 03:42:39;;;;;;;;;;;;;;;;;;1042163;28;2924;-45
2022/04/18 03:43:09;;;;;;;;;;;;;;;;;;1045690;28;1828;-44
2022/04/18 03:43:39;;;;;;;;;;;;;;;;;;1044418;28;1845;-51
2022/04/18 03:44:10;;;;;;;;;;;;;;;;;;1042691;28;1509;-44